Aviation Digital Data Service (ADDS)

Output produced by METARs form (0131 UTC 19 December 2014)
found at http://www.aviationweather.gov/adds/metars/
 
KBFD 190119Z AUTO 31012KT 3SM -FZRA BR OVC006 M03/M05 A3001 RMK AO2 FZRAB13 P0000 I1001 T10281050
KBFD 190053Z AUTO 29011KT 3SM BR OVC006 M03/M05 A3002 RMK AO2 FZRAB07E19SNB19E30 SLP189 P0000 I1002 T10331050
KBFD 190025Z AUTO 29009G15KT 4SM -SN BR OVC006 M03/M05 A3001 RMK AO2 FZRAB07E19SNB19 P0000 I1001 T10331050
KBFD 190013Z AUTO 30007KT 3SM -FZRA BR OVC006 M03/M05 A3002 RMK AO2 FZRAB07 P0000 I1001 T10281050
KBFD 182353Z AUTO 29008KT 3SM BR OVC008 M03/M05 A3002 RMK AO2 SLP191 60000 I1002 I6013 T10331050 11028 21033 51004
KBFD 182306Z AUTO 28012G19KT 3SM BR OVC007 M03/M05 A3002 RMK AO2 CIG 005V010 T10331050
KBFD 182253Z AUTO 28013G17KT 2 1/2SM BR OVC007 M03/M05 A3002 RMK AO2 CIG 005V009 SLP189 I1003 T10281050
KBFD 182153Z AUTO 28010KT 3SM BR OVC006 M03/M05 A3002 RMK AO2 FZRAB2054E07 CIG 005V012 SLP189 P0000 I1002 T10281050
KBFD 182141Z AUTO 27006KT 4SM BR OVC006 M03/M05 A3002 RMK AO2 FZRAB2054E07 P0000 I1002 T10281050
KBFD 182113Z AUTO 27009KT 2 1/2SM BR OVC005 M03/M05 A3001 RMK AO2 FZRAB2054E07 CIG 004V009 P0000 I1001 T10281050
KBFD 182100Z AUTO 28006KT 2SM -FZRA BR OVC007 M03/M05 A3001 RMK AO2 FZRAB2054 CIG 004V010 P0000 I1001 T10281050
KBFD 182053Z AUTO 28008KT 2SM BR OVC007 M03/M05 A3001 RMK AO2 FZRAE14 CIG 005V010 SLP187 P0000 60000 I1002 I3006 T10281050 53001
KBFD 182020Z AUTO 28008KT 2 1/2SM BR OVC005 M03/M05 A3000 RMK AO2 FZRAE14 CIG 004V009 P0000 I1001 T10281050
KBFD 182011Z AUTO 28009KT 2SM -FZRA BR OVC005 M03/M05 A3000 RMK AO2 CIG 004V009 P0000 I1001 T10281050
KBFD 181953Z AUTO 27008KT 1 1/4SM -FZRA BR OVC004 M03/M05 A3000 RMK AO2 UPB37E48FZRAE28B48SNB28E37 SLP184 P0000 I1002 T10281050
KBFD 181940Z AUTO 28011KT 1 1/4SM UP BR OVC004 M03/M05 A3001 RMK AO2 UPB37FZRAE28SNB28E37 P0000 I1001 T10331050
KBFD 181928Z AUTO 28011KT 1 1/2SM -SN BR OVC005 M03/M05 A3000 RMK AO2 FZRAE28SNB28 P0000 I1001 T10281050
KBFD 181853Z AUTO 28010KT 2 1/2SM -FZRA BR OVC006 M03/M05 A3000 RMK AO2 FZRAB02E14B22E32B49 CIG 004V008 SLP184 P0000 I1002 T10281050
KBFD 181850Z AUTO 28008KT 2 1/2SM -FZRA BR OVC006 M03/M05 A3000 RMK AO2 FZRAB02E14B22E32B49 CIG 004V008 P0000 I1001
KBFD 181838Z AUTO 29012KT 3SM BR BKN005 OVC010 M03/M05 A3000 RMK AO2 FZRAB02E14B22E32 CIG 004V008 P0000 I1001 T10281050
KBFD 181828Z AUTO 28011KT 2 1/2SM -FZRA BR OVC005 M03/M05 A3000 RMK AO2 FZRAB02E14B22 P0000 I1001 T10281050
KBFD 181815Z AUTO 29011KT 2 1/2SM BR OVC005 M03/M05 A3001 RMK AO2 FZRAB02E14 P0000 I1001 T10281050
KBFD 181802Z AUTO 28009KT 3SM -FZRA BR OVC006 M03/M04 A3001 RMK AO2 FZRAB02 CIG 004V009 P0000 I1000 T10281044
KBFD 181753Z AUTO 30012KT 2 1/2SM BR OVC006 M03/M05 A3001 RMK AO2 CIG 005V009 SLP185 I1001 I6002 T10281050 11028 21039 56009
KBFD 181653Z AUTO 29011KT 3SM BR OVC005 M03/M05 A3001 RMK AO2 SLP188 I1001 T10331050
KBFD 181553Z AUTO 29008KT 5SM BR OVC005 M03/M05 A3003 RMK AO2 SLP194 T10331050
KBFD 181453Z AUTO 29011KT 10SM OVC006 M03/M06 A3004 RMK AO2 SLP196 T10331056 51002
KBFD 181353Z AUTO 29009KT 10SM OVC006 M04/M06 A3003 RMK AO2 SLP194 T10391056
KBFD 181253Z AUTO 29010KT 10SM OVC007 M04/M06 A3004 RMK AO2 SLP196 T10391061
KBFD 181209Z AUTO 30012G22KT 8SM OVC009 M04/M07 A3003 RMK AO2 T10391067
KBFD 181153Z AUTO 29014G20KT 10SM OVC010 M04/M07 A3003 RMK AO2 SLP194 60000 70006 I6001 T10391067 11033 21039 53009
KBFD 181116Z AUTO 27009G19KT 10SM FEW009 BKN013 OVC021 M04/M07 A3002 RMK AO2 T10391072
KBFD 181107Z AUTO 28011G18KT 10SM SCT009 BKN016 OVC021 M04/M07 A3001 RMK AO2 T10391072
KBFD 181053Z AUTO 28008G17KT 10SM BKN009 OVC014 M04/M07 A3001 RMK AO2 UPE0959B30E32SNB19E30B32E47 SLP186 P0000 T10391067
KBFD 181030Z AUTO 29010KT 7SM UP OVC009 M04/M07 A3001 RMK AO2 UPE0959B30SNB19E30 P0000 T10391067
KBFD 180953Z AUTO 29012G20KT 9SM UP OVC012 M04/M07 A3001 RMK AO2 SNB0859E03 SLP184 P0000 I1000 T10391072
KBFD 180905Z AUTO 28012G22KT 8SM UP SCT008 OVC014 M04/M07 A3000 RMK AO2 SNB0859E03 P0000 T10391072
KBFD 180853Z AUTO 29017G24KT 6SM UP BR OVC008 M04/M06 A3000 RMK AO2 UPB0758SNE0758B18E27B41E50 CIG 007V013 SLP183 P0000 60000 I1000 I3001 T10391061 51014
KBFD 180830Z AUTO 29011G18KT 4SM UP BR OVC008 M04/M06 A3000 RMK AO2 UPB0758SNE0758B18E27 P0000 I1000 T10391061
KBFD 180753Z AUTO 28011KT 3SM -SN BKN012 OVC016 M04/M07 A3000 RMK AO2 UPE44FZRAB44E47SNB09E21B22E23B47 SLP182 P0000 I1001 T10391067
KBFD 180706Z AUTO 30008G18KT 7SM UP OVC014 M04/M07 A2999 RMK AO2 P0000 T10391072
KBFD 180653Z AUTO 28013KT 8SM UP BKN015 OVC019 M04/M07 A2999 RMK AO2 UPB40SNB20E40 SLP176 P0000 T10391072
KBFD 180553Z AUTO 29014G23KT 9SM FEW014 OVC022 M03/M07 A2996 RMK AO2 SNE39 SLP166 P0000 60004 I6000 T10331067 11028 21039 51002
KBFD 180551Z AUTO 29016G23KT 10SM SCT014 OVC022 M03/M07 A2996 RMK AO2 SNE39 P0000
KBFD 180544Z AUTO 28011G20KT 9SM FEW008 BKN014 OVC022 M03/M07 A2996 RMK AO2 SNE39 P0000 T10331067
KBFD 180515Z AUTO 26007G14KT 220V300 5SM -SN BR BKN010 OVC015 M04/M06 A2996 RMK AO2 P0000 T10391061
KBFD 180453Z AUTO 28010KT 4SM -SN BR SCT010 OVC016 M04/M06 A2996 RMK AO2 SLP165 P0001 T10391061 400391039
KBFD 180448Z AUTO 27009KT 2SM -SN BR BKN012 OVC018 M04/M06 A2995 RMK AO2 P0001
KBFD 180444Z AUTO 27009KT 1 3/4SM -SN BR BKN010 OVC016 M04/M06 A2995 RMK AO2 P0001 T10391061
KBFD 180434Z AUTO 27010G16KT 3SM -SN BR OVC012 M04/M06 A2995 RMK AO2 P0001 T10391061
KBFD 180424Z AUTO 27010G17KT 2 1/2SM -SN BKN009 OVC016 M03/M06 A2996 RMK AO2 P0001 T10331061
KBFD 180412Z AUTO 27008G16KT 3SM -SN BR BKN010 OVC015 M03/M06 A2996 RMK AO2 P0001 T10331056
KBFD 180410Z AUTO 27007G17KT 2SM -SN BR BKN008 OVC015 M03/M06 A2995 RMK AO2 P0001 T10331056
KBFD 180406Z AUTO 27007G17KT 230V290 1SM -SN BR SCT008 OVC015 M03/M06 A2995 RMK AO2 P0000 T10331056
KBFD 180404Z AUTO 27010G17KT 3/4SM -SN BR SCT008 BKN013 OVC020 M03/M06 A2995 RMK AO2 P0000 T10331056
KBFD 180353Z AUTO 26007KT 1 1/4SM -SN BR BKN009 OVC014 M03/M06 A2995 RMK AO2 SLP164 P0002 T10331056
KBFD 180348Z AUTO 27007KT 1 1/4SM -SN BR BKN009 OVC014 M03/M06 A2995 RMK AO2 P0002
KBFD 180339Z AUTO 25006KT 2SM -SN BR OVC009 M03/M06 A2996 RMK AO2 P0001 T10331056
KBFD 180324Z AUTO 28007KT 1 1/4SM -SN BR BKN009 OVC014 M03/M06 A2995 RMK AO2 P0001 T10331056
KBFD 180259Z AUTO 28008KT 1 3/4SM -SN BR OVC013 M03/M06 A2995 RMK AO2 P0000 T10331056
KBFD 180253Z AUTO 28007KT 3SM -SN BR OVC013 M03/M06 A2995 RMK AO2 UPB14E30SNE09B30 SLP163 P0001 60001 I3000 T10331056 56001
KBFD 180251Z AUTO 28008KT 4SM -SN BR OVC013 M03/M06 A2995 RMK AO2 UPB14E30SNE09B30 P0000
KBFD 180219Z AUTO 29011G17KT 8SM UP SCT010 OVC020 M03/M06 A2996 RMK AO2 UPB14SNE09 P0000 T10281061
KBFD 180153Z AUTO 28009KT 4SM -SN BR OVC012 M03/M05 A2996 RMK AO2 UPE06B30E48SNB48 SLP164 P0000 I1000 T10281050
KBFD 180111Z AUTO 28009G16KT 9SM OVC014 M03/M06 A2996 RMK AO2 UPE06 P0000 T10281056
KBFD 180053Z AUTO 28014G21KT 9SM UP BKN009 OVC014 M03/M06 A2996 RMK AO2 UPB43 SLP164 P0000 T10281061
KBFD 172353Z AUTO 27012G20KT 10SM OVC008 M03/M06 A2995 RMK AO2 UPB07E11B13E37SNB22E33 SLP161 P0000 60002 T10281056 10000 21028 51010
KBFD 172312Z AUTO 28010G17KT 9SM OVC008 M02/M05 A2994 RMK AO2 UPB07E11 CIG 007V010 P0000 T10221050
KBFD 172253Z AUTO 28012G22KT 8SM OVC010 M02/M05 A2994 RMK AO2 SLP156 T10221050
KBFD 172153Z AUTO 27015G21KT 10SM OVC010 M02/M05 A2993 RMK AO2 UPB46E48SNE14B18E46 SLP153 P0001 T10221050
KBFD 172136Z AUTO 27012G19KT 3SM -SN BR OVC012 M02/M04 A2992 RMK AO2 SNE14B18 P0001 T10221044
KBFD 172125Z AUTO 27010KT 1 3/4SM -SN BKN010 OVC015 M02/M04 A2992 RMK AO2 SNE14B18 CIG 008V013 P0001 T10171044
KBFD 172122Z AUTO 25007KT 2 1/2SM -SN FEW008 OVC015 M02/M04 A2992 RMK AO2 SNE14B18 P0001 T10171044
KBFD 172117Z AUTO 28012G20KT 6SM HZ SCT010 OVC015 M02/M04 A2992 RMK AO2 SNE14 P0001 T10171044
KBFD 172109Z AUTO 28012G18KT 2SM -SN SCT008 OVC015 M02/M04 A2992 RMK AO2 P0001 T10171044
KBFD 172105Z AUTO 28011G18KT 3/4SM -SN SCT010 OVC015 M02/M04 A2992 RMK AO2 P0001 T10171044
KBFD 172055Z AUTO 27013G19KT 1 3/4SM -SN OVC013 M02/M04 A2992 RMK AO2 VIS 1/2V5 P0000 T10171044
KBFD 172053Z AUTO 26011G19KT 3SM -SN OVC013 M02/M04 A2992 RMK AO2 UPE1955B15E17SNB1955E15B33 SLP147 P0000 60001 T10171044 51010
KBFD 172048Z AUTO 26009KT 3SM -SN BKN013 OVC026 M02/M04 A2992 RMK AO2 UPE1955B15E17SNB1955E15B33 P0000
KBFD 172041Z AUTO 27010G15KT 1 3/4SM -SN BKN013 OVC020 M02/M04 A2992 RMK AO2 UPE1955B15E17SNB1955E15B33 P0000 T10171044
KBFD 171953Z AUTO 27009G19KT 8SM UP OVC013 M01/M04 A2991 RMK AO2 UPB16SNE16 SLP145 P0001 T10111044
KBFD 171920Z AUTO 27012G20KT 9SM UP FEW007 OVC013 M01/M04 A2990 RMK AO2 UPB16SNE16 P0001 T10111044
KBFD 171912Z AUTO 27013G23KT 2SM -SN SCT008 OVC013 M01/M04 A2990 RMK AO2 P0001 T10111039
KBFD 171900Z AUTO 27013G20KT 3/4SM -SN BR FEW006 BKN010 OVC014 M01/M03 A2990 RMK AO2 P0001 T10111033
KBFD 171853Z AUTO 27010G19KT 1/2SM -SN FZFG BKN010 BKN014 OVC020 M01/M03 A2990 RMK AO2 SNB31 SLP139 P0000 T10111033
KBFD 171851Z AUTO 27013G19KT 1/2SM -SN FZFG SCT010 BKN014 OVC027 M01/M03 A2990 RMK AO2 SNB31 P0000
KBFD 171841Z AUTO 26010G18KT 1 1/4SM -SN BR FEW010 OVC016 M01/M03 A2989 RMK AO2 SNB31 P0000 T10111033
KBFD 171835Z AUTO 25011G19KT 220V280 2 1/2SM -SN BKN014 OVC019 M01/M03 A2989 RMK AO2 VIS 3/4V5 SNB31 P0000 T10061033
KBFD 171806Z AUTO 27009G18KT 10SM BKN016 BKN020 OVC028 00/M03 A2989 RMK AO2 T00001033
KBFD 171753Z AUTO 28012G23KT 10SM BKN013 BKN020 OVC029 00/M03 A2989 RMK AO2 SNB1656E10 SLP135 P0000 60000 T00001033 10017 20000 58005
KBFD 171720Z AUTO 28012G18KT 10SM BKN014 BKN023 OVC030 00/M03 A2989 RMK AO2 SNB1656E10 P0000 T00001028
KBFD 171709Z AUTO 27013G21KT 7SM -SN FEW010 BKN015 OVC026 00/M03 A2989 RMK AO2 SNB1656 P0000 T00001028 $
KBFD 171704Z AUTO 27010G21KT 2SM -SN BR BKN012 BKN018 OVC026 00/M02 A2989 RMK AO2 SNB1656 P0000 T00001022 $
KBFD 171658Z AUTO 27009G20KT 1 3/4SM -SN BR 00/M02 A2989 RMK AO2 SNB56 P0000 T00001022 $
KBFD 171653Z AUTO 26009G20KT 5SM HZ 00/M03 A2989 RMK AO2 SNEMM SLP137 P0000 T00001028 $
KBFD 171607Z AUTO 01/M02 A2991 RMK AO2 SNEMM P0000 T00061022 PWINO FZRANO $
KBFD 171600Z AUTO 2SM -SN 01/M02 A2990 RMK AO2 P0000 T00061022 $
KBFD 171553Z AUTO 29011G19KT 1 1/4SM -SN BR BKN008 OVC013 00/M02 A2990 RMK AO2 SNB05 SLP141 P0000 T00001017
KBFD 171548Z AUTO 28010G17KT 3/4SM -SN BR BKN008 OVC012 00/M02 A2990 RMK AO2 SNB05 P0000
KBFD 171528Z AUTO 27006G14KT 1 3/4SM -SN BR OVC009 01/M02 A2991 RMK AO2 SNB05 CIG 006V013 P0000 T00061017
KBFD 171523Z AUTO 27010G14KT 3SM -SN BR OVC009 01/M02 A2991 RMK AO2 SNB05 CIG 007V014 P0000 T00061017
KBFD 171509Z AUTO VRB04G16KT 2SM -SN BR BKN009 BKN013 OVC029 01/M02 A2991 RMK AO2 SNB05 CIG 007V011 P0000 T00061017
KBFD 171453Z AUTO 28012G16KT 7SM BKN011 BKN016 OVC029 01/M02 A2990 RMK AO2 SNE42 SLP140 P0000 60000 T00061017 51015
KBFD 171431Z AUTO 28013G23KT 4SM -SN BR SCT007 OVC014 01/M02 A2990 RMK AO2 P0000 T00061017
KBFD 171428Z AUTO 27009G18KT 2 1/2SM -SN BR FEW005 BKN009 OVC016 01/M02 A2990 RMK AO2 P0000 T00061017
KBFD 171415Z AUTO 28010G15KT 3/4SM -SN BR BKN007 OVC012 01/M01 A2990 RMK AO2 P0000 T00061011
KBFD 171403Z AUTO 28010KT 1 1/4SM -SN BR OVC009 01/M01 A2989 RMK AO2 CIG 006V011 P0000 T00061011
KBFD 171353Z AUTO 28008G16KT 2 1/2SM -SN BR OVC009 01/M01 A2989 RMK AO2 SNB05E27B50 CIG 006V013 SLP135 P0000 T00061011
KBFD 171338Z AUTO 28009KT 6SM BR BKN008 OVC013 01/M01 A2989 RMK AO2 SNB05E27 CIG 007V011 P0000 T00111011